sensor_id;sensor_type;location;lat;lon;timestamp;pressure;altitude;pressure_sealevel;temperature;humidity
39681;BME280;26327;42.550;23.120;2023-05-07T00:01:03;93052.81;;;9.59;98.99
39681;BME280;26327;42.550;23.120;2023-05-07T00:03:30;93036.38;;;9.36;99.54
39681;BME280;26327;42.550;23.120;2023-05-07T00:05:56;92945.56;;;8.66;99.83
39681;BME280;26327;42.550;23.120;2023-05-07T00:08:21;93017.94;;;9.23;99.96
39681;BME280;26327;42.550;23.120;2023-05-07T00:10:47;93020.00;;;9.35;99.54
39681;BME280;26327;42.550;23.120;2023-05-07T00:13:12;92954.75;;;8.76;100.00
39681;BME280;26327;42.550;23.120;2023-05-07T00:15:38;93002.19;;;8.85;100.00
39681;BME280;26327;42.550;23.120;2023-05-07T00:18:03;93040.88;;;9.03;100.00
39681;BME280;26327;42.550;23.120;2023-05-07T00:20:29;93013.88;;;8.73;100.00
39681;BME280;26327;42.550;23.120;2023-05-07T00:22:54;93038.75;;;9.06;100.00
39681;BME280;26327;42.550;23.120;2023-05-07T00:25:20;92935.25;;;8.58;100.00
39681;BME280;26327;42.550;23.120;2023-05-07T00:27:45;93023.19;;;9.06;100.00
39681;BME280;26327;42.550;23.120;2023-05-07T00:30:11;93009.56;;;9.12;100.00
39681;BME280;26327;42.550;23.120;2023-05-07T00:32:37;92928.50;;;8.88;99.06
39681;BME280;26327;42.550;23.120;2023-05-07T00:35:04;92878.16;;;8.27;99.27
39681;BME280;26327;42.550;23.120;2023-05-07T00:37:29;92963.97;;;8.87;99.33
39681;BME280;26327;42.550;23.120;2023-05-07T00:39:55;93033.25;;;9.01;99.77
39681;BME280;26327;42.550;23.120;2023-05-07T00:42:20;92950.78;;;8.41;99.75
39681;BME280;26327;42.550;23.120;2023-05-07T00:44:46;92963.09;;;8.56;99.66
39681;BME280;26327;42.550;23.120;2023-05-07T00:47:11;93035.22;;;8.99;99.43
39681;BME280;26327;42.550;23.120;2023-05-07T00:49:39;93023.38;;;8.89;99.63
39681;BME280;26327;42.550;23.120;2023-05-07T00:52:07;93012.81;;;8.98;99.22
39681;BME280;26327;42.550;23.120;2023-05-07T00:54:34;93020.91;;;9.11;98.61
39681;BME280;26327;42.550;23.120;2023-05-07T00:56:59;92971.69;;;8.95;97.69
39681;BME280;26327;42.550;23.120;2023-05-07T00:59:25;93038.66;;;9.31;98.00
39681;BME280;26327;42.550;23.120;2023-05-07T01:01:52;93034.44;;;9.30;97.70
39681;BME280;26327;42.550;23.120;2023-05-07T01:04:17;93000.81;;;9.13;96.91
39681;BME280;26327;42.550;23.120;2023-05-07T01:06:44;93025.38;;;9.26;96.97
39681;BME280;26327;42.550;23.120;2023-05-07T01:09:10;93028.50;;;9.13;96.86
39681;BME280;26327;42.550;23.120;2023-05-07T01:11:37;92866.22;;;7.93;97.92
39681;BME280;26327;42.550;23.120;2023-05-07T01:14:03;93029.94;;;8.60;100.00
39681;BME280;26327;42.550;23.120;2023-05-07T01:16:29;92978.97;;;8.52;100.00
39681;BME280;26327;42.550;23.120;2023-05-07T01:18:55;92935.75;;;8.20;100.00
39681;BME280;26327;42.550;23.120;2023-05-07T01:21:25;93006.53;;;9.01;99.42
39681;BME280;26327;42.550;23.120;2023-05-07T01:23:52;93016.59;;;8.88;99.40
39681;BME280;26327;42.550;23.120;2023-05-07T01:26:18;92956.16;;;8.07;100.00
39681;BME280;26327;42.550;23.120;2023-05-07T01:28:45;93027.81;;;8.56;100.00
39681;BME280;26327;42.550;23.120;2023-05-07T01:31:12;92984.75;;;8.30;100.00
39681;BME280;26327;42.550;23.120;2023-05-07T01:33:40;92974.72;;;8.27;100.00
39681;BME280;26327;42.550;23.120;2023-05-07T01:36:08;92985.56;;;8.47;100.00
39681;BME280;26327;42.550;23.120;2023-05-07T01:38:36;92961.78;;;8.43;100.00
39681;BME280;26327;42.550;23.120;2023-05-07T01:41:02;92992.50;;;8.71;100.00
39681;BME280;26327;42.550;23.120;2023-05-07T01:43:29;93007.25;;;8.62;100.00
39681;BME280;26327;42.550;23.120;2023-05-07T01:45:55;93006.44;;;8.45;100.00
39681;BME280;26327;42.550;23.120;2023-05-07T01:48:22;93000.13;;;8.15;100.00
39681;BME280;26327;42.550;23.120;2023-05-07T01:50:48;93008.72;;;8.40;100.00
39681;BME280;26327;42.550;23.120;2023-05-07T01:53:14;93012.56;;;8.77;99.99
39681;BME280;26327;42.550;23.120;2023-05-07T01:55:40;93004.00;;;8.68;99.52
39681;BME280;26327;42.550;23.120;2023-05-07T01:58:05;93000.78;;;8.58;99.78
39681;BME280;26327;42.550;23.120;2023-05-07T02:00:31;92920.84;;;8.31;98.26
39681;BME280;26327;42.550;23.120;2023-05-07T02:02:56;92997.38;;;8.66;98.03
39681;BME280;26327;42.550;23.120;2023-05-07T02:05:22;92981.06;;;8.41;98.80
39681;BME280;26327;42.550;23.120;2023-05-07T02:07:47;92982.97;;;8.47;98.94
39681;BME280;26327;42.550;23.120;2023-05-07T02:10:13;92961.16;;;8.41;98.08
39681;BME280;26327;42.550;23.120;2023-05-07T02:12:38;92965.50;;;8.33;97.90
39681;BME280;26327;42.550;23.120;2023-05-07T02:15:04;92950.50;;;8.12;98.62
39681;BME280;26327;42.550;23.120;2023-05-07T02:17:29;92979.59;;;8.06;99.18
39681;BME280;26327;42.550;23.120;2023-05-07T02:19:57;92953.06;;;8.04;98.60
39681;BME280;26327;42.550;23.120;2023-05-07T02:22:22;92962.63;;;8.36;97.32
39681;BME280;26327;42.550;23.120;2023-05-07T02:24:48;92970.53;;;8.42;96.56
39681;BME280;26327;42.550;23.120;2023-05-07T02:27:14;92966.63;;;8.30;96.85
39681;BME280;26327;42.550;23.120;2023-05-07T02:29:39;92985.75;;;8.05;98.53
39681;BME280;26327;42.550;23.120;2023-05-07T02:32:05;92881.13;;;7.42;98.16
39681;BME280;26327;42.550;23.120;2023-05-07T02:34:30;92983.94;;;7.89;97.94
39681;BME280;26327;42.550;23.120;2023-05-07T02:36:55;92966.00;;;7.71;97.87
39681;BME280;26327;42.550;23.120;2023-05-07T02:39:21;92985.00;;;7.54;99.49
39681;BME280;26327;42.550;23.120;2023-05-07T02:41:46;92990.84;;;7.56;99.78
39681;BME280;26327;42.550;23.120;2023-05-07T02:44:12;92911.06;;;6.94;99.77
39681;BME280;26327;42.550;23.120;2023-05-07T02:46:37;92949.59;;;7.30;99.90
39681;BME280;26327;42.550;23.120;2023-05-07T02:49:02;92984.09;;;7.87;98.55
39681;BME280;26327;42.550;23.120;2023-05-07T02:51:30;92907.44;;;7.30;98.27
39681;BME280;26327;42.550;23.120;2023-05-07T02:53:56;92996.88;;;7.81;97.61
39681;BME280;26327;42.550;23.120;2023-05-07T02:56:21;92919.22;;;7.32;98.50
39681;BME280;26327;42.550;23.120;2023-05-07T02:58:47;92880.59;;;7.14;97.23
39681;BME280;26327;42.550;23.120;2023-05-07T03:01:12;92979.34;;;7.50;98.44
39681;BME280;26327;42.550;23.120;2023-05-07T03:03:39;92996.31;;;7.53;98.64
39681;BME280;26327;42.550;23.120;2023-05-07T03:06:05;92980.44;;;7.32;98.88
39681;BME280;26327;42.550;23.120;2023-05-07T03:08:31;92976.22;;;7.22;98.88
39681;BME280;26327;42.550;23.120;2023-05-07T03:10:57;93013.88;;;7.33;99.53
39681;BME280;26327;42.550;23.120;2023-05-07T03:13:22;92983.38;;;7.45;98.62
39681;BME280;26327;42.550;23.120;2023-05-07T03:15:48;92912.53;;;7.05;97.56
39681;BME280;26327;42.550;23.120;2023-05-07T03:18:13;92998.38;;;7.33;98.99
39681;BME280;26327;42.550;23.120;2023-05-07T03:20:39;92951.03;;;7.16;98.42
39681;BME280;26327;42.550;23.120;2023-05-07T03:23:04;93005.44;;;7.73;97.76
39681;BME280;26327;42.550;23.120;2023-05-07T03:25:30;92992.97;;;7.69;97.32
39681;BME280;26327;42.550;23.120;2023-05-07T03:27:56;93019.84;;;7.84;97.04
39681;BME280;26327;42.550;23.120;2023-05-07T03:30:21;92927.13;;;7.31;96.54
39681;BME280;26327;42.550;23.120;2023-05-07T03:32:47;93000.59;;;7.70;96.82
39681;BME280;26327;42.550;23.120;2023-05-07T03:35:12;93025.47;;;7.79;97.47
39681;BME280;26327;42.550;23.120;2023-05-07T03:37:38;92995.72;;;7.67;97.02
39681;BME280;26327;42.550;23.120;2023-05-07T03:40:05;93020.31;;;7.87;97.38
39681;BME280;26327;42.550;23.120;2023-05-07T03:42:30;92962.69;;;7.29;97.11
39681;BME280;26327;42.550;23.120;2023-05-07T03:44:55;93039.91;;;7.40;98.88
39681;BME280;26327;42.550;23.120;2023-05-07T03:47:21;93003.19;;;7.20;99.48
39681;BME280;26327;42.550;23.120;2023-05-07T03:49:46;92879.69;;;6.39;99.26
39681;BME280;26327;42.550;23.120;2023-05-07T03:52:13;92930.19;;;6.68;99.52
39681;BME280;26327;42.550;23.120;2023-05-07T03:54:38;93042.47;;;7.32;99.65
39681;BME280;26327;42.550;23.120;2023-05-07T03:57:04;92898.75;;;6.46;99.76
39681;BME280;26327;42.550;23.120;2023-05-07T03:59:29;93028.06;;;7.21;99.78
39681;BME280;26327;42.550;23.120;2023-05-07T04:01:55;92919.88;;;6.42;100.00
39681;BME280;26327;42.550;23.120;2023-05-07T04:04:20;93037.31;;;7.32;100.00
39681;BME280;26327;42.550;23.120;2023-05-07T04:06:46;92960.28;;;6.93;100.00
39681;BME280;26327;42.550;23.120;2023-05-07T04:09:11;93054.91;;;7.86;100.00
39681;BME280;26327;42.550;23.120;2023-05-07T04:11:37;92977.09;;;7.55;99.45
39681;BME280;26327;42.550;23.120;2023-05-07T04:14:02;93052.25;;;8.37;98.89
39681;BME280;26327;42.550;23.120;2023-05-07T04:16:27;93073.16;;;8.51;99.07
39681;BME280;26327;42.550;23.120;2023-05-07T04:18:53;93048.53;;;8.39;99.18
39681;BME280;26327;42.550;23.120;2023-05-07T04:21:19;93058.72;;;8.49;98.71
39681;BME280;26327;42.550;23.120;2023-05-07T04:23:48;93069.09;;;8.65;99.11
39681;BME280;26327;42.550;23.120;2023-05-07T04:26:14;93023.28;;;8.58;98.78
39681;BME280;26327;42.550;23.120;2023-05-07T04:28:40;93064.03;;;8.88;99.37
39681;BME280;26327;42.550;23.120;2023-05-07T04:31:06;93045.91;;;8.80;100.00
39681;BME280;26327;42.550;23.120;2023-05-07T04:33:31;92974.06;;;8.66;100.00
39681;BME280;26327;42.550;23.120;2023-05-07T04:35:57;93082.69;;;9.39;100.00
39681;BME280;26327;42.550;23.120;2023-05-07T04:38:22;92947.72;;;8.54;100.00
39681;BME280;26327;42.550;23.120;2023-05-07T04:40:49;92992.22;;;9.13;100.00
39681;BME280;26327;42.550;23.120;2023-05-07T04:43:14;93072.22;;;9.71;100.00
39681;BME280;26327;42.550;23.120;2023-05-07T04:45:39;93075.16;;;9.99;99.85
39681;BME280;26327;42.550;23.120;2023-05-07T04:48:07;93085.59;;;10.22;99.82
39681;BME280;26327;42.550;23.120;2023-05-07T04:50:32;93093.59;;;10.44;98.82
39681;BME280;26327;42.550;23.120;2023-05-07T04:52:58;93070.69;;;10.39;97.92
39681;BME280;26327;42.550;23.120;2023-05-07T04:55:23;92978.75;;;9.79;97.07
39681;BME280;26327;42.550;23.120;2023-05-07T04:57:48;93078.47;;;10.85;94.58
39681;BME280;26327;42.550;23.120;2023-05-07T05:00:14;92986.16;;;10.36;95.02
39681;BME280;26327;42.550;23.120;2023-05-07T05:02:40;93021.25;;;10.70;94.08
39681;BME280;26327;42.550;23.120;2023-05-07T05:05:06;93005.69;;;10.85;93.66
39681;BME280;26327;42.550;23.120;2023-05-07T05:07:32;93099.44;;;11.65;93.04
39681;BME280;26327;42.550;23.120;2023-05-07T05:09:57;93093.16;;;11.74;91.98
39681;BME280;26327;42.550;23.120;2023-05-07T05:12:23;93075.84;;;11.66;91.27
39681;BME280;26327;42.550;23.120;2023-05-07T05:14:48;93011.72;;;11.44;90.01
39681;BME280;26327;42.550;23.120;2023-05-07T05:17:14;93007.03;;;11.54;89.89
39681;BME280;26327;42.550;23.120;2023-05-07T05:19:39;93053.75;;;11.92;90.69
39681;BME280;26327;42.550;23.120;2023-05-07T05:22:05;93068.50;;;12.21;90.28
39681;BME280;26327;42.550;23.120;2023-05-07T05:24:31;93094.28;;;12.52;88.70
39681;BME280;26327;42.550;23.120;2023-05-07T05:26:56;92957.53;;;11.84;89.41
39681;BME280;26327;42.550;23.120;2023-05-07T05:29:21;93076.19;;;12.72;88.57
39681;BME280;26327;42.550;23.120;2023-05-07T05:31:47;93006.66;;;12.29;89.27
39681;BME280;26327;42.550;23.120;2023-05-07T05:34:13;93006.91;;;12.35;88.63
39681;BME280;26327;42.550;23.120;2023-05-07T05:36:38;93034.63;;;12.64;88.35
39681;BME280;26327;42.550;23.120;2023-05-07T05:39:04;93093.38;;;13.30;85.85
39681;BME280;26327;42.550;23.120;2023-05-07T05:41:29;93051.81;;;13.29;84.16
39681;BME280;26327;42.550;23.120;2023-05-07T05:43:55;93035.63;;;13.46;80.70
39681;BME280;26327;42.550;23.120;2023-05-07T05:46:21;93085.19;;;13.74;79.69
39681;BME280;26327;42.550;23.120;2023-05-07T05:48:46;93041.22;;;13.78;79.19
39681;BME280;26327;42.550;23.120;2023-05-07T05:51:11;93080.59;;;14.31;79.26
39681;BME280;26327;42.550;23.120;2023-05-07T05:53:37;93094.00;;;14.82;76.02
39681;BME280;26327;42.550;23.120;2023-05-07T05:56:02;93063.81;;;14.73;77.19
39681;BME280;26327;42.550;23.120;2023-05-07T05:58:28;93052.16;;;14.89;76.26
39681;BME280;26327;42.550;23.120;2023-05-07T06:00:53;93086.75;;;15.50;73.06
39681;BME280;26327;42.550;23.120;2023-05-07T06:03:19;93036.41;;;15.41;70.47
39681;BME280;26327;42.550;23.120;2023-05-07T06:05:45;93041.84;;;15.40;71.21
39681;BME280;26327;42.550;23.120;2023-05-07T06:08:10;93087.97;;;16.25;69.87
39681;BME280;26327;42.550;23.120;2023-05-07T06:10:37;93085.38;;;16.70;68.01
39681;BME280;26327;42.550;23.120;2023-05-07T06:13:02;93052.09;;;17.20;61.32
39681;BME280;26327;42.550;23.120;2023-05-07T06:15:28;93071.84;;;17.48;61.35
39681;BME280;26327;42.550;23.120;2023-05-07T06:17:53;93042.28;;;17.77;61.48
39681;BME280;26327;42.550;23.120;2023-05-07T06:20:21;92990.94;;;17.56;61.16
39681;BME280;26327;42.550;23.120;2023-05-07T06:22:46;93066.53;;;18.64;55.87
39681;BME280;26327;42.550;23.120;2023-05-07T06:25:11;93014.91;;;18.03;56.31
39681;BME280;26327;42.550;23.120;2023-05-07T06:27:37;93005.97;;;18.94;54.21
39681;BME280;26327;42.550;23.120;2023-05-07T06:30:02;93014.94;;;19.52;52.18
39681;BME280;26327;42.550;23.120;2023-05-07T06:32:28;93079.16;;;20.44;50.57
39681;BME280;26327;42.550;23.120;2023-05-07T06:34:53;93064.97;;;20.90;49.32
39681;BME280;26327;42.550;23.120;2023-05-07T06:37:19;93067.16;;;21.94;45.40
39681;BME280;26327;42.550;23.120;2023-05-07T06:39:44;93028.25;;;22.60;42.20
39681;BME280;26327;42.550;23.120;2023-05-07T06:42:09;93059.63;;;23.54;40.11
39681;BME280;26327;42.550;23.120;2023-05-07T06:44:35;92996.72;;;23.81;37.65
39681;BME280;26327;42.550;23.120;2023-05-07T06:47:00;93040.41;;;24.73;37.21
39681;BME280;26327;42.550;23.120;2023-05-07T06:49:26;93036.78;;;25.30;35.42
39681;BME280;26327;42.550;23.120;2023-05-07T06:51:51;93034.94;;;25.61;35.37
39681;BME280;26327;42.550;23.120;2023-05-07T06:54:17;92969.22;;;25.67;34.66
39681;BME280;26327;42.550;23.120;2023-05-07T06:56:42;93038.25;;;26.43;33.53
39681;BME280;26327;42.550;23.120;2023-05-07T06:59:07;93034.56;;;26.88;33.19
39681;BME280;26327;42.550;23.120;2023-05-07T07:01:33;92984.88;;;27.42;31.73
39681;BME280;26327;42.550;23.120;2023-05-07T07:03:58;93035.41;;;27.67;30.06
39681;BME280;26327;42.550;23.120;2023-05-07T07:06:24;93021.63;;;27.84;30.18
39681;BME280;26327;42.550;23.120;2023-05-07T07:08:50;93038.84;;;28.73;29.36
39681;BME280;26327;42.550;23.120;2023-05-07T07:11:16;93013.47;;;28.95;29.11
39681;BME280;26327;42.550;23.120;2023-05-07T07:13:41;92993.72;;;28.67;29.05
39681;BME280;26327;42.550;23.120;2023-05-07T07:16:08;93013.66;;;29.68;27.71
39681;BME280;26327;42.550;23.120;2023-05-07T07:18:33;93005.84;;;30.18;27.01
39681;BME280;26327;42.550;23.120;2023-05-07T07:20:59;93036.34;;;30.36;27.32
39681;BME280;26327;42.550;23.120;2023-05-07T07:23:24;93017.28;;;30.65;26.19
39681;BME280;26327;42.550;23.120;2023-05-07T07:25:50;93004.88;;;30.42;25.47
39681;BME280;26327;42.550;23.120;2023-05-07T07:28:15;93008.19;;;29.92;26.81
39681;BME280;26327;42.550;23.120;2023-05-07T07:30:41;92979.34;;;29.70;26.36
39681;BME280;26327;42.550;23.120;2023-05-07T07:33:06;93008.31;;;30.15;26.15
39681;BME280;26327;42.550;23.120;2023-05-07T07:35:32;92962.25;;;30.26;24.58
39681;BME280;26327;42.550;23.120;2023-05-07T07:37:58;93020.25;;;30.50;25.14
39681;BME280;26327;42.550;23.120;2023-05-07T07:40:24;93016.91;;;30.30;24.97
39681;BME280;26327;42.550;23.120;2023-05-07T07:42:50;92989.00;;;30.31;24.72
39681;BME280;26327;42.550;23.120;2023-05-07T07:45:15;93037.63;;;31.43;24.69
39681;BME280;26327;42.550;23.120;2023-05-07T07:47:41;93047.25;;;32.11;25.00
39681;BME280;26327;42.550;23.120;2023-05-07T07:50:07;92985.13;;;31.59;21.79
39681;BME280;26327;42.550;23.120;2023-05-07T07:52:33;93045.78;;;30.88;23.00
39681;BME280;26327;42.550;23.120;2023-05-07T07:54:58;93011.13;;;31.14;23.24
39681;BME280;26327;42.550;23.120;2023-05-07T07:57:24;93043.94;;;32.14;22.67
39681;BME280;26327;42.550;23.120;2023-05-07T07:59:49;93028.13;;;32.35;23.18
39681;BME280;26327;42.550;23.120;2023-05-07T08:02:15;93034.72;;;33.52;22.45
39681;BME280;26327;42.550;23.120;2023-05-07T08:04:40;92980.66;;;33.91;20.71
39681;BME280;26327;42.550;23.120;2023-05-07T08:07:08;93024.53;;;34.00;20.04
39681;BME280;26327;42.550;23.120;2023-05-07T08:09:34;92971.19;;;33.59;20.25
39681;BME280;26327;42.550;23.120;2023-05-07T08:12:00;93018.44;;;34.38;20.96
39681;BME280;26327;42.550;23.120;2023-05-07T08:14:26;93035.28;;;35.53;20.27
39681;BME280;26327;42.550;23.120;2023-05-07T08:16:53;93028.63;;;36.37;18.38
39681;BME280;26327;42.550;23.120;2023-05-07T08:19:19;92991.78;;;36.00;19.47
39681;BME280;26327;42.550;23.120;2023-05-07T08:21:45;93020.94;;;35.11;20.35
39681;BME280;26327;42.550;23.120;2023-05-07T08:24:13;92976.69;;;33.89;20.56
39681;BME280;26327;42.550;23.120;2023-05-07T08:26:39;93010.22;;;35.02;20.24
39681;BME280;26327;42.550;23.120;2023-05-07T08:29:04;93011.78;;;34.73;20.68
39681;BME280;26327;42.550;23.120;2023-05-07T08:31:30;93013.00;;;34.47;21.06
39681;BME280;26327;42.550;23.120;2023-05-07T08:33:56;92989.41;;;35.65;21.06
39681;BME280;26327;42.550;23.120;2023-05-07T08:36:22;92939.00;;;35.48;19.82
39681;BME280;26327;42.550;23.120;2023-05-07T08:38:47;92972.16;;;36.48;19.15
39681;BME280;26327;42.550;23.120;2023-05-07T08:41:12;93017.06;;;37.62;18.56
39681;BME280;26327;42.550;23.120;2023-05-07T08:43:41;92983.13;;;37.68;18.31
39681;BME280;26327;42.550;23.120;2023-05-07T08:46:08;92997.03;;;39.01;16.25
39681;BME280;26327;42.550;23.120;2023-05-07T08:48:35;92993.06;;;39.30;16.08
39681;BME280;26327;42.550;23.120;2023-05-07T08:51:01;93021.72;;;39.82;15.89
39681;BME280;26327;42.550;23.120;2023-05-07T08:53:26;92968.50;;;38.76;16.33
39681;BME280;26327;42.550;23.120;2023-05-07T08:55:53;93011.03;;;39.19;16.13
39681;BME280;26327;42.550;23.120;2023-05-07T08:58:18;93004.16;;;37.31;17.38
39681;BME280;26327;42.550;23.120;2023-05-07T09:00:44;92957.69;;;36.32;18.09
39681;BME280;26327;42.550;23.120;2023-05-07T09:03:09;93014.44;;;35.74;18.85
39681;BME280;26327;42.550;23.120;2023-05-07T09:05:38;93013.78;;;34.85;19.91
39681;BME280;26327;42.550;23.120;2023-05-07T09:08:04;93007.31;;;33.84;21.04
39681;BME280;26327;42.550;23.120;2023-05-07T09:10:32;92891.03;;;34.62;19.85
39681;BME280;26327;42.550;23.120;2023-05-07T09:12:58;92986.75;;;35.15;19.73
39681;BME280;26327;42.550;23.120;2023-05-07T09:15:23;93002.13;;;34.26;20.32
39681;BME280;26327;42.550;23.120;2023-05-07T09:17:50;93010.94;;;33.79;20.86
39681;BME280;26327;42.550;23.120;2023-05-07T09:20:16;93015.31;;;32.80;21.08
39681;BME280;26327;42.550;23.120;2023-05-07T09:22:41;92949.03;;;32.05;22.10
39681;BME280;26327;42.550;23.120;2023-05-07T09:25:08;92951.13;;;32.48;22.81
39681;BME280;26327;42.550;23.120;2023-05-07T09:27:34;92988.78;;;33.31;21.16
39681;BME280;26327;42.550;23.120;2023-05-07T09:30:03;92982.13;;;34.27;20.47
39681;BME280;26327;42.550;23.120;2023-05-07T09:32:28;93006.56;;;36.60;19.33
39681;BME280;26327;42.550;23.120;2023-05-07T09:34:55;92938.84;;;37.48;16.78
39681;BME280;26327;42.550;23.120;2023-05-07T09:37:21;93004.72;;;38.80;16.49
39681;BME280;26327;42.550;23.120;2023-05-07T09:39:48;92930.81;;;39.83;15.68
39681;BME280;26327;42.550;23.120;2023-05-07T09:42:14;92991.50;;;39.68;15.87
39681;BME280;26327;42.550;23.120;2023-05-07T09:44:40;92941.97;;;40.20;14.30
39681;BME280;26327;42.550;23.120;2023-05-07T09:47:06;92945.72;;;40.12;14.02
39681;BME280;26327;42.550;23.120;2023-05-07T09:49:36;92951.25;;;39.19;14.00
39681;BME280;26327;42.550;23.120;2023-05-07T09:52:03;92942.69;;;38.51;14.05
39681;BME280;26327;42.550;23.120;2023-05-07T09:54:31;92986.53;;;39.00;15.71
39681;BME280;26327;42.550;23.120;2023-05-07T09:56:58;92982.81;;;37.98;16.05
39681;BME280;26327;42.550;23.120;2023-05-07T09:59:24;92931.19;;;37.94;16.15
39681;BME280;26327;42.550;23.120;2023-05-07T10:01:52;92917.75;;;37.02;16.64
39681;BME280;26327;42.550;23.120;2023-05-07T10:04:19;92977.72;;;35.73;17.39
39681;BME280;26327;42.550;23.120;2023-05-07T10:06:46;92992.56;;;35.05;17.96
39681;BME280;26327;42.550;23.120;2023-05-07T10:09:12;92984.56;;;34.02;18.70
39681;BME280;26327;42.550;23.120;2023-05-07T10:11:39;92966.28;;;33.35;19.98
39681;BME280;26327;42.550;23.120;2023-05-07T10:14:05;92959.75;;;33.54;19.07
39681;BME280;26327;42.550;23.120;2023-05-07T10:16:32;92983.69;;;33.21;18.99
39681;BME280;26327;42.550;23.120;2023-05-07T10:19:05;92957.09;;;33.19;19.23
39681;BME280;26327;42.550;23.120;2023-05-07T10:21:30;92979.91;;;33.30;19.26
39681;BME280;26327;42.550;23.120;2023-05-07T10:24:04;92974.44;;;32.70;19.58
39681;BME280;26327;42.550;23.120;2023-05-07T10:26:35;92908.00;;;32.22;19.16
39681;BME280;26327;42.550;23.120;2023-05-07T10:29:07;92958.69;;;32.06;19.61
39681;BME280;26327;42.550;23.120;2023-05-07T10:31:47;92943.47;;;31.93;19.61
39681;BME280;26327;42.550;23.120;2023-05-07T10:34:17;92929.13;;;31.44;19.84
39681;BME280;26327;42.550;23.120;2023-05-07T10:36:45;92935.94;;;31.50;20.72
39681;BME280;26327;42.550;23.120;2023-05-07T10:39:11;92967.56;;;31.76;19.68
39681;BME280;26327;42.550;23.120;2023-05-07T10:41:36;92968.97;;;31.15;20.36
39681;BME280;26327;42.550;23.120;2023-05-07T10:44:02;92950.22;;;30.79;20.29
39681;BME280;26327;42.550;23.120;2023-05-07T10:46:28;92956.41;;;30.24;20.60
39681;BME280;26327;42.550;23.120;2023-05-07T10:51:30;92938.53;;;30.20;20.95
39681;BME280;26327;42.550;23.120;2023-05-07T10:56:42;92952.56;;;30.03;22.21
39681;BME280;26327;42.550;23.120;2023-05-07T11:01:56;92945.88;;;29.22;22.02
39681;BME280;26327;42.550;23.120;2023-05-07T11:04:23;92926.34;;;28.89;22.33
39681;BME280;26327;42.550;23.120;2023-05-07T11:09:56;92884.72;;;27.78;25.07
39681;BME280;26327;42.550;23.120;2023-05-07T11:15:10;92828.38;;;26.30;26.43
39681;BME280;26327;42.550;23.120;2023-05-07T11:17:56;92926.25;;;27.66;24.81
39681;BME280;26327;42.550;23.120;2023-05-07T11:20:49;92935.97;;;28.04;24.82
39681;BME280;26327;42.550;23.120;2023-05-07T11:26:04;92950.56;;;27.88;25.85
39681;BME280;26327;42.550;23.120;2023-05-07T11:28:31;92934.16;;;27.42;25.53
39681;BME280;26327;42.550;23.120;2023-05-07T11:31:01;92933.47;;;27.31;26.45
39681;BME280;26327;42.550;23.120;2023-05-07T11:33:27;92919.91;;;27.27;25.10
39681;BME280;26327;42.550;23.120;2023-05-07T11:35:53;92894.03;;;26.60;25.26
39681;BME280;26327;42.550;23.120;2023-05-07T11:38:19;92929.34;;;26.76;25.25
39681;BME280;26327;42.550;23.120;2023-05-07T11:40:55;92942.63;;;26.37;24.96
39681;BME280;26327;42.550;23.120;2023-05-07T11:43:21;92928.91;;;26.09;25.67
39681;BME280;26327;42.550;23.120;2023-05-07T11:45:48;92935.06;;;25.94;27.31
39681;BME280;26327;42.550;23.120;2023-05-07T11:48:15;92852.44;;;25.45;25.66
39681;BME280;26327;42.550;23.120;2023-05-07T11:51:10;92942.03;;;25.80;26.48
39681;BME280;26327;42.550;23.120;2023-05-07T11:53:40;92921.28;;;25.82;28.29
39681;BME280;26327;42.550;23.120;2023-05-07T11:56:13;92922.63;;;25.80;27.53
39681;BME280;26327;42.550;23.120;2023-05-07T11:58:39;92792.19;;;25.00;27.64
39681;BME280;26327;42.550;23.120;2023-05-07T12:01:07;92919.19;;;25.49;27.34
39681;BME280;26327;42.550;23.120;2023-05-07T12:03:34;92787.97;;;24.58;26.80
39681;BME280;26327;42.550;23.120;2023-05-07T12:06:00;92930.97;;;25.07;26.83
39681;BME280;26327;42.550;23.120;2023-05-07T12:08:25;92897.19;;;24.82;26.40
39681;BME280;26327;42.550;23.120;2023-05-07T12:10:51;92912.31;;;24.71;26.82
39681;BME280;26327;42.550;23.120;2023-05-07T12:13:20;92918.69;;;24.91;26.78
39681;BME280;26327;42.550;23.120;2023-05-07T12:15:46;92885.22;;;24.90;26.91
39681;BME280;26327;42.550;23.120;2023-05-07T12:18:15;92897.69;;;24.94;28.83
39681;BME280;26327;42.550;23.120;2023-05-07T12:20:40;92903.28;;;24.88;26.22
39681;BME280;26327;42.550;23.120;2023-05-07T12:23:06;92882.81;;;24.83;26.84
39681;BME280;26327;42.550;23.120;2023-05-07T12:25:43;92889.47;;;24.96;26.91
39681;BME280;26327;42.550;23.120;2023-05-07T12:28:18;92888.66;;;24.95;26.49
39681;BME280;26327;42.550;23.120;2023-05-07T12:30:46;92884.94;;;24.51;26.97
39681;BME280;26327;42.550;23.120;2023-05-07T12:33:12;92886.25;;;24.48;27.73
39681;BME280;26327;42.550;23.120;2023-05-07T12:35:41;92889.69;;;24.33;27.25
39681;BME280;26327;42.550;23.120;2023-05-07T12:38:08;92902.41;;;24.26;28.16
39681;BME280;26327;42.550;23.120;2023-05-07T12:40:39;92854.59;;;24.26;28.58
39681;BME280;26327;42.550;23.120;2023-05-07T12:43:04;92892.63;;;24.52;27.64
39681;BME280;26327;42.550;23.120;2023-05-07T12:45:30;92873.50;;;24.35;27.24
39681;BME280;26327;42.550;23.120;2023-05-07T12:47:56;92851.75;;;24.63;26.98
39681;BME280;26327;42.550;23.120;2023-05-07T12:50:21;92860.22;;;24.50;27.57
39681;BME280;26327;42.550;23.120;2023-05-07T12:52:48;92804.69;;;24.23;28.34
39681;BME280;26327;42.550;23.120;2023-05-07T12:55:15;92845.88;;;24.82;28.17
39681;BME280;26327;42.550;23.120;2023-05-07T12:57:48;92870.34;;;24.89;28.58
39681;BME280;26327;42.550;23.120;2023-05-07T13:00:14;92856.00;;;25.10;28.22
39681;BME280;26327;42.550;23.120;2023-05-07T13:02:41;92787.19;;;24.53;27.32
39681;BME280;26327;42.550;23.120;2023-05-07T13:05:09;92782.94;;;24.46;27.39